createdAt,value
2023-01-17T00:01:33.942Z,7.87
2023-01-17T00:04:20.194Z,8.24
2023-01-17T00:07:05.888Z,7.92
2023-01-17T00:09:52.418Z,8.07
2023-01-17T00:12:20.544Z,8.88
2023-01-17T00:14:48.322Z,8.85
2023-01-17T00:17:15.561Z,8.53
2023-01-17T00:20:01.344Z,8.59
2023-01-17T00:22:47.986Z,8.20
2023-01-17T00:25:38.079Z,8.35
2023-01-17T00:28:05.835Z,8.78
2023-01-17T00:30:33.461Z,8.80
2023-01-17T00:33:00.769Z,9.16
2023-01-17T00:35:28.852Z,9.02
2023-01-17T00:38:09.194Z,9.16
2023-01-17T00:40:37.486Z,8.60
2023-01-17T00:43:23.401Z,9.08
2023-01-17T00:46:09.772Z,9.72
2023-01-17T00:48:56.032Z,8.96
2023-01-17T00:51:42.344Z,9.51
2023-01-17T00:54:28.123Z,9.80
2023-01-17T00:57:14.408Z,9.06
2023-01-17T01:00:00.181Z,9.24
2023-01-17T01:02:46.606Z,9.44
2023-01-17T01:05:32.631Z,8.14
2023-01-17T01:08:18.869Z,9.04
2023-01-17T01:11:05.455Z,8.45
2023-01-17T01:13:52.152Z,9.29
2023-01-17T01:16:38.218Z,7.54
2023-01-17T01:19:24.607Z,7.27
2023-01-17T01:22:10.258Z,7.03
2023-01-17T01:24:56.670Z,7.30
2023-01-17T01:27:42.826Z,7.59
2023-01-17T01:30:29.026Z,7.33
2023-01-17T01:33:15.048Z,7.63
2023-01-17T01:35:43.037Z,6.58
2023-01-17T01:38:10.199Z,6.84
2023-01-17T01:40:41.747Z,7.19
2023-01-17T01:43:09.330Z,6.95
2023-01-17T01:45:36.607Z,6.34
2023-01-17T01:48:03.729Z,6.84
2023-01-17T01:50:31.533Z,7.14
2023-01-17T01:52:59.352Z,7.32
2023-01-17T01:55:30.532Z,8.43
2023-01-17T01:57:59.086Z,9.00
2023-01-17T02:00:27.339Z,9.23
2023-01-17T02:02:54.817Z,9.03
2023-01-17T02:05:22.892Z,8.92
2023-01-17T02:07:51.083Z,8.77
2023-01-17T02:10:18.578Z,9.02
2023-01-17T02:12:45.926Z,9.14
2023-01-17T02:15:13.144Z,9.32
2023-01-17T02:17:46.788Z,8.84
2023-01-17T02:20:32.960Z,8.79
2023-01-17T02:23:23.100Z,9.18
2023-01-17T02:25:53.318Z,8.69
2023-01-17T02:28:26.931Z,8.61
2023-01-17T02:31:17.371Z,7.56
2023-01-17T02:34:01.331Z,7.90
2023-01-17T02:36:47.505Z,7.98
2023-01-17T02:39:22.266Z,6.92
2023-01-17T02:41:51.660Z,6.98
2023-01-17T02:44:19.853Z,6.25
2023-01-17T02:46:50.804Z,6.02
2023-01-17T02:49:18.284Z,6.41
2023-01-17T02:51:48.499Z,6.73
2023-01-17T02:54:21.733Z,7.22
2023-01-17T02:56:49.170Z,8.45
2023-01-17T02:59:35.112Z,8.12
2023-01-17T03:02:08.476Z,8.63
2023-01-17T03:04:42.922Z,8.77
2023-01-17T03:07:11.813Z,8.25
2023-01-17T03:09:40.677Z,9.51
2023-01-17T03:12:08.765Z,9.77
2023-01-17T03:14:36.290Z,9.93
2023-01-17T03:17:03.508Z,9.41
2023-01-17T03:19:31.395Z,9.45
2023-01-17T03:21:58.861Z,8.53
2023-01-17T03:24:26.070Z,9.21
2023-01-17T03:26:53.438Z,9.54
2023-01-17T03:29:20.888Z,8.88
2023-01-17T03:31:48.048Z,9.03
2023-01-17T03:34:15.265Z,9.49
2023-01-17T03:36:42.738Z,9.71
2023-01-17T03:39:09.993Z,10.01
2023-01-17T03:41:37.241Z,10.15
2023-01-17T03:44:04.709Z,9.31
2023-01-17T03:46:31.882Z,8.65
2023-01-17T03:48:59.074Z,7.84
2023-01-17T03:51:27.150Z,8.80
2023-01-17T03:53:54.347Z,9.75
2023-01-17T03:56:21.605Z,10.21
2023-01-17T03:58:49.122Z,10.27
2023-01-17T04:01:16.394Z,10.23
2023-01-17T04:03:44.051Z,9.14
2023-01-17T04:06:11.215Z,9.24
2023-01-17T04:08:38.431Z,9.62
2023-01-17T04:11:05.915Z,10.09
2023-01-17T04:13:33.226Z,8.20
2023-01-17T04:16:00.717Z,7.75
2023-01-17T04:18:28.232Z,8.62
2023-01-17T04:20:55.374Z,8.33
2023-01-17T04:23:22.508Z,8.65
2023-01-17T04:25:49.968Z,9.39
2023-01-17T04:28:17.104Z,8.86
2023-01-17T04:30:44.289Z,8.49
2023-01-17T04:33:11.778Z,9.27
2023-01-17T04:35:39.015Z,8.70
2023-01-17T04:38:06.179Z,9.41
2023-01-17T04:40:33.639Z,8.75
2023-01-17T04:43:00.866Z,9.52
2023-01-17T04:45:28.104Z,9.74
2023-01-17T04:47:55.602Z,9.51
2023-01-17T04:50:22.861Z,8.89
2023-01-17T04:52:50.067Z,8.93
2023-01-17T04:55:17.640Z,9.16
2023-01-17T04:57:44.819Z,9.24
2023-01-17T05:00:12.286Z,9.00
2023-01-17T05:02:39.971Z,8.67
2023-01-17T05:05:07.367Z,8.19
2023-01-17T05:07:35.802Z,8.45
2023-01-17T05:10:04.519Z,7.75
2023-01-17T05:12:31.758Z,7.43
2023-01-17T05:14:58.938Z,8.48
2023-01-17T05:17:26.431Z,7.61
2023-01-17T05:19:53.968Z,7.96
2023-01-17T05:22:21.136Z,7.02
2023-01-17T05:24:48.584Z,6.94
2023-01-17T05:27:15.850Z,7.30
2023-01-17T05:29:43.052Z,7.45
2023-01-17T05:32:10.564Z,7.55
2023-01-17T05:34:37.901Z,7.45
2023-01-17T05:37:05.088Z,7.59
2023-01-17T05:39:32.521Z,7.52
2023-01-17T05:41:59.746Z,7.32
2023-01-17T05:44:27.708Z,8.16
2023-01-17T05:46:56.131Z,7.25
2023-01-17T05:49:23.425Z,6.81
2023-01-17T05:51:50.648Z,7.30
2023-01-17T05:54:18.099Z,7.42
2023-01-17T05:56:45.242Z,7.58
2023-01-17T05:59:14.195Z,7.03
2023-01-17T06:01:41.857Z,6.85
2023-01-17T06:04:09.309Z,7.09
2023-01-17T06:06:36.523Z,6.86
2023-01-17T06:09:03.754Z,6.92
2023-01-17T06:11:31.266Z,7.23
2023-01-17T06:13:58.401Z,7.55
2023-01-17T06:16:25.635Z,7.26
2023-01-17T06:18:53.178Z,7.98
2023-01-17T06:21:20.346Z,7.46
2023-01-17T06:23:47.590Z,7.16
2023-01-17T06:26:15.046Z,7.23
2023-01-17T06:28:42.369Z,6.76
2023-01-17T06:31:09.673Z,7.21
2023-01-17T06:33:37.179Z,6.68
2023-01-17T06:36:04.553Z,7.13
2023-01-17T06:38:31.790Z,7.82
2023-01-17T06:41:00.418Z,7.88
2023-01-17T06:43:28.500Z,7.67
2023-01-17T06:45:55.739Z,7.56
2023-01-17T06:48:23.172Z,7.61
2023-01-17T06:50:50.407Z,7.59
2023-01-17T06:53:17.545Z,7.52
2023-01-17T06:55:45.129Z,6.90
2023-01-17T06:58:12.312Z,6.72
2023-01-17T07:00:40.923Z,6.85
2023-01-17T07:03:17.593Z,6.94
2023-01-17T07:05:44.781Z,7.19
2023-01-17T07:08:12.252Z,7.62
2023-01-17T07:10:39.411Z,7.31
2023-01-17T07:13:06.678Z,7.66
2023-01-17T07:15:34.180Z,7.29
2023-01-17T07:18:02.004Z,7.43
2023-01-17T07:20:29.370Z,7.51
2023-01-17T07:22:56.847Z,7.88
2023-01-17T07:25:24.065Z,8.04
2023-01-17T07:27:55.022Z,8.65
2023-01-17T07:30:22.530Z,8.61
2023-01-17T07:32:53.566Z,8.23
2023-01-17T07:35:20.823Z,8.12
2023-01-17T07:37:51.262Z,8.17
2023-01-17T07:40:18.829Z,8.13
2023-01-17T07:42:46.327Z,7.99
2023-01-17T07:45:14.264Z,8.43
2023-01-17T07:47:41.440Z,8.61
2023-01-17T07:50:09.455Z,8.78
2023-01-17T07:52:36.900Z,8.47
2023-01-17T07:55:05.149Z,8.64
2023-01-17T07:57:33.172Z,8.86
2023-01-17T08:00:00.632Z,8.96
2023-01-17T08:02:27.852Z,8.88
2023-01-17T08:04:55.311Z,8.66
2023-01-17T08:07:22.461Z,9.20
2023-01-17T08:09:50.489Z,9.97
2023-01-17T08:12:18.073Z,10.76
2023-01-17T08:14:45.236Z,10.97
2023-01-17T08:17:13.169Z,11.14
2023-01-17T08:19:40.599Z,11.04
2023-01-17T08:22:08.015Z,10.68
2023-01-17T08:24:35.177Z,11.08
2023-01-17T08:27:02.669Z,11.53
2023-01-17T08:29:29.856Z,12.24
2023-01-17T08:31:57.067Z,13.67
2023-01-17T08:34:24.591Z,13.31
2023-01-17T08:36:54.598Z,12.20
2023-01-17T08:39:21.828Z,12.31
2023-01-17T08:41:49.289Z,12.19
2023-01-17T08:44:16.484Z,12.16
2023-01-17T08:46:44.247Z,12.31
2023-01-17T08:49:12.211Z,12.27
2023-01-17T08:51:39.910Z,12.73
2023-01-17T08:54:07.375Z,13.47
2023-01-17T08:56:35.022Z,13.64
2023-01-17T08:59:03.189Z,13.26
2023-01-17T09:01:30.577Z,13.64
2023-01-17T09:03:58.187Z,14.29
2023-01-17T09:06:25.457Z,15.74
2023-01-17T09:08:54.643Z,16.75
2023-01-17T09:11:22.091Z,16.27
2023-01-17T09:13:49.334Z,16.45
2023-01-17T09:16:16.522Z,17.51
2023-01-17T09:18:43.996Z,17.67
2023-01-17T09:21:15.435Z,17.81
2023-01-17T09:23:42.734Z,18.22
2023-01-17T09:26:15.207Z,19.42
2023-01-17T09:28:42.763Z,20.97
2023-01-17T09:31:10.360Z,21.49
2023-01-17T09:33:37.773Z,21.06
2023-01-17T09:36:05.545Z,20.00
2023-01-17T09:38:33.043Z,19.33
2023-01-17T09:41:00.328Z,20.09
2023-01-17T09:43:41.061Z,19.77
2023-01-17T09:46:12.506Z,19.60
2023-01-17T09:48:39.728Z,19.31
2023-01-17T09:51:12.551Z,18.85
2023-01-17T09:53:41.563Z,18.42
2023-01-17T09:56:16.140Z,18.15
2023-01-17T09:58:43.596Z,17.96
2023-01-17T10:01:13.148Z,17.87
2023-01-17T10:03:46.703Z,17.45
2023-01-17T10:06:16.524Z,17.78
2023-01-17T10:09:03.900Z,17.53
2023-01-17T10:11:43.324Z,17.67
2023-01-17T10:14:25.893Z,18.50
2023-01-17T10:17:02.264Z,18.68
2023-01-17T10:19:48.486Z,19.36
2023-01-17T10:22:15.669Z,20.29
2023-01-17T10:24:46.142Z,20.44
2023-01-17T10:27:15.931Z,19.87
2023-01-17T10:29:43.378Z,20.05
2023-01-17T10:32:10.709Z,21.39
2023-01-17T10:34:40.550Z,22.60
2023-01-17T10:37:19.545Z,24.01
2023-01-17T10:39:48.908Z,25.02
2023-01-17T10:42:20.753Z,26.36
2023-01-17T10:44:50.393Z,27.29
2023-01-17T10:47:22.199Z,27.53
2023-01-17T10:49:52.720Z,27.62
2023-01-17T10:52:43.387Z,26.92
2023-01-17T10:55:12.902Z,26.44
2023-01-17T10:57:41.559Z,24.51
2023-01-17T11:00:19.306Z,23.37
2023-01-17T11:02:49.598Z,22.67
2023-01-17T11:05:25.354Z,22.93
2023-01-17T11:08:02.927Z,23.23
2023-01-17T11:10:58.015Z,23.62
2023-01-17T11:13:26.610Z,23.62
2023-01-17T11:15:59.130Z,23.04
2023-01-17T11:18:28.323Z,23.21
2023-01-17T11:21:15.806Z,23.09
2023-01-17T11:23:50.091Z,23.00
2023-01-17T11:26:21.620Z,22.87
2023-01-17T11:28:49.075Z,22.46
2023-01-17T11:31:16.725Z,22.78
2023-01-17T11:33:56.830Z,23.08
2023-01-17T11:36:28.098Z,22.83
2023-01-17T11:39:21.855Z,21.98
2023-01-17T11:41:49.389Z,21.47
2023-01-17T11:44:20.657Z,20.93
2023-01-17T11:46:47.940Z,20.52
2023-01-17T11:49:25.361Z,19.81
2023-01-17T11:51:56.372Z,19.18
2023-01-17T11:54:31.871Z,18.59
2023-01-17T11:57:02.033Z,16.29
2023-01-17T11:59:31.558Z,16.89
2023-01-17T12:02:16.246Z,16.65
2023-01-17T12:04:45.683Z,17.20
2023-01-17T12:07:17.119Z,16.91
2023-01-17T12:09:47.307Z,16.60
2023-01-17T12:12:39.988Z,15.59
2023-01-17T12:15:10.505Z,14.71
2023-01-17T12:17:45.561Z,14.48
2023-01-17T12:20:16.452Z,13.26
2023-01-17T12:22:49.877Z,13.39
2023-01-17T12:25:32.479Z,13.26
2023-01-17T12:27:59.868Z,13.59
2023-01-17T12:30:27.298Z,12.70
2023-01-17T12:33:00.723Z,12.14
2023-01-17T12:35:30.991Z,12.54
2023-01-17T12:38:05.296Z,11.66
2023-01-17T12:40:35.523Z,11.62
2023-01-17T12:43:23.152Z,12.01
2023-01-17T12:45:50.628Z,11.75
2023-01-17T12:48:18.816Z,11.91
2023-01-17T12:50:45.929Z,12.74
2023-01-17T12:53:22.192Z,12.86
2023-01-17T12:55:55.486Z,12.99
2023-01-17T12:58:24.706Z,13.09
2023-01-17T13:01:03.514Z,12.27
2023-01-17T13:03:48.588Z,12.09
2023-01-17T13:06:20.047Z,12.03
2023-01-17T13:08:49.702Z,11.68
2023-01-17T13:11:18.705Z,12.71
2023-01-17T13:13:47.311Z,11.52
2023-01-17T13:16:15.839Z,12.19
2023-01-17T13:18:47.123Z,11.50
2023-01-17T13:21:30.481Z,12.31
2023-01-17T13:23:59.114Z,12.23
2023-01-17T13:26:30.547Z,12.15
2023-01-17T13:29:00.974Z,11.65
2023-01-17T13:31:28.401Z,10.94
2023-01-17T13:34:01.605Z,11.76
2023-01-17T13:36:41.228Z,11.58
2023-01-17T13:39:11.427Z,12.13
2023-01-17T13:41:41.547Z,10.85
2023-01-17T13:44:21.547Z,11.34
2023-01-17T13:46:55.865Z,12.21
2023-01-17T13:49:26.188Z,10.55
2023-01-17T13:52:07.559Z,10.84
2023-01-17T13:54:35.130Z,11.36
2023-01-17T13:57:21.412Z,10.02
2023-01-17T13:59:48.723Z,10.74
2023-01-17T14:02:34.764Z,10.73
2023-01-17T14:05:05.114Z,10.51
2023-01-17T14:07:32.606Z,11.21
2023-01-17T14:09:59.868Z,10.72
2023-01-17T14:12:31.450Z,11.33
2023-01-17T14:15:00.684Z,10.68
2023-01-17T14:17:34.888Z,10.09
2023-01-17T14:20:05.135Z,10.12
2023-01-17T14:22:36.020Z,9.03
2023-01-17T14:25:09.764Z,9.00
2023-01-17T14:27:40.412Z,10.21
2023-01-17T14:30:16.615Z,9.38
2023-01-17T14:33:10.687Z,10.26
2023-01-17T14:35:38.989Z,10.28
2023-01-17T14:38:20.928Z,10.67
2023-01-17T14:40:54.515Z,10.12
2023-01-17T14:43:23.069Z,10.74
2023-01-17T14:45:55.863Z,10.17
2023-01-17T14:48:23.564Z,10.51
2023-01-17T14:50:52.070Z,10.69
2023-01-17T14:53:21.283Z,10.51
2023-01-17T14:55:48.938Z,10.60
2023-01-17T14:58:16.605Z,10.61
2023-01-17T15:00:43.935Z,10.05
2023-01-17T15:03:11.861Z,9.25
2023-01-17T15:05:40.204Z,9.73
2023-01-17T15:08:11.148Z,9.36
2023-01-17T15:10:43.574Z,9.88
2023-01-17T15:13:10.809Z,9.90
2023-01-17T15:15:39.830Z,9.65
2023-01-17T15:18:13.386Z,9.52
2023-01-17T15:20:45.985Z,8.97
2023-01-17T15:23:14.639Z,8.75
2023-01-17T15:25:41.900Z,9.74
2023-01-17T15:28:10.038Z,10.14
2023-01-17T15:30:37.519Z,10.06
2023-01-17T15:33:04.767Z,9.93
2023-01-17T15:35:32.234Z,10.14
2023-01-17T15:38:01.302Z,9.84
2023-01-17T15:40:31.377Z,9.76
2023-01-17T15:42:59.409Z,9.33
2023-01-17T15:45:30.802Z,9.69
2023-01-17T15:47:59.319Z,9.75
2023-01-17T15:50:30.782Z,9.53
2023-01-17T15:53:02.311Z,9.79
2023-01-17T15:55:39.275Z,9.96
2023-01-17T15:58:22.960Z,9.94
2023-01-17T16:00:50.601Z,9.99
2023-01-17T16:03:18.164Z,10.04
2023-01-17T16:05:45.671Z,10.35
2023-01-17T16:08:15.407Z,10.31
2023-01-17T16:10:43.292Z,10.06
2023-01-17T16:13:11.210Z,10.05
2023-01-17T16:15:38.426Z,10.40
2023-01-17T16:18:16.073Z,10.40
2023-01-17T16:20:58.218Z,10.09
2023-01-17T16:23:25.774Z,10.36
2023-01-17T16:25:54.027Z,10.46
2023-01-17T16:28:21.298Z,10.43
2023-01-17T16:30:49.003Z,10.47
2023-01-17T16:33:16.592Z,10.37
2023-01-17T16:35:43.763Z,9.79
2023-01-17T16:38:12.582Z,10.42
2023-01-17T16:40:40.618Z,10.00
2023-01-17T16:43:07.828Z,10.06
2023-01-17T16:45:39.341Z,10.13
2023-01-17T16:48:06.777Z,9.68
2023-01-17T16:50:33.968Z,9.89
2023-01-17T16:53:01.418Z,9.10
2023-01-17T16:55:28.616Z,9.43
2023-01-17T16:57:56.486Z,9.30
2023-01-17T17:00:23.928Z,9.32
2023-01-17T17:02:51.712Z,9.35
2023-01-17T17:05:19.340Z,9.66
2023-01-17T17:07:50.761Z,9.61
2023-01-17T17:10:19.893Z,9.56
2023-01-17T17:12:47.491Z,9.54
2023-01-17T17:15:14.707Z,9.28
2023-01-17T17:17:43.210Z,8.75
2023-01-17T17:20:12.285Z,9.30
2023-01-17T17:22:39.880Z,8.99
2023-01-17T17:25:07.181Z,8.88
2023-01-17T17:27:34.823Z,9.14
2023-01-17T17:30:02.197Z,9.04
2023-01-17T17:32:29.605Z,9.28
2023-01-17T17:34:57.124Z,8.68
2023-01-17T17:37:24.405Z,8.85
2023-01-17T17:39:51.589Z,8.82
2023-01-17T17:42:20.047Z,8.79
2023-01-17T17:44:47.250Z,9.03
2023-01-17T17:47:16.131Z,8.71
2023-01-17T17:49:43.844Z,8.52
2023-01-17T17:52:11.008Z,8.28
2023-01-17T17:54:38.559Z,8.42
2023-01-17T17:57:06.543Z,8.77
2023-01-17T17:59:33.804Z,8.69
2023-01-17T18:02:01.488Z,8.62
2023-01-17T18:04:29.725Z,8.51
2023-01-17T18:06:57.552Z,7.57
2023-01-17T18:09:24.728Z,7.56
2023-01-17T18:11:53.126Z,8.62
2023-01-17T18:14:23.905Z,8.32
2023-01-17T18:16:51.723Z,8.25
2023-01-17T18:19:23.319Z,8.07
2023-01-17T18:21:51.386Z,7.75
2023-01-17T18:24:20.317Z,7.46
2023-01-17T18:26:48.532Z,7.57
2023-01-17T18:29:16.342Z,8.01
2023-01-17T18:31:44.431Z,8.13
2023-01-17T18:34:13.205Z,8.08
2023-01-17T18:36:40.666Z,8.21
2023-01-17T18:39:16.471Z,7.68
2023-01-17T18:41:43.850Z,7.78
2023-01-17T18:44:11.784Z,7.18
2023-01-17T18:46:40.311Z,7.52
2023-01-17T18:49:09.811Z,7.67
2023-01-17T18:51:37.480Z,7.11
2023-01-17T18:54:06.927Z,6.84
2023-01-17T18:56:38.000Z,6.80
2023-01-17T18:59:06.158Z,6.64
2023-01-17T19:01:35.831Z,6.71
2023-01-17T19:04:04.358Z,6.71
2023-01-17T19:06:33.225Z,6.63
2023-01-17T19:09:00.657Z,6.51
2023-01-17T19:11:28.491Z,6.63
2023-01-17T19:13:56.372Z,6.61
2023-01-17T19:16:24.982Z,6.39
2023-01-17T19:18:52.595Z,6.70
2023-01-17T19:21:21.296Z,6.88
2023-01-17T19:23:49.091Z,6.53
2023-01-17T19:26:17.289Z,6.60
2023-01-17T19:28:45.155Z,6.74
2023-01-17T19:31:22.265Z,6.63
2023-01-17T19:33:51.208Z,6.62
2023-01-17T19:36:19.699Z,7.10
2023-01-17T19:39:03.078Z,7.06
2023-01-17T19:41:32.411Z,7.10
2023-01-17T19:44:00.492Z,7.09
2023-01-17T19:46:28.186Z,6.95
2023-01-17T19:48:56.011Z,6.96
2023-01-17T19:51:23.527Z,7.27
2023-01-17T19:53:50.879Z,6.91
2023-01-17T19:56:19.190Z,7.79
2023-01-17T19:58:47.760Z,7.79
2023-01-17T20:01:15.101Z,7.69
2023-01-17T20:03:44.260Z,7.04
2023-01-17T20:06:12.468Z,8.32
2023-01-17T20:08:40.579Z,7.70
2023-01-17T20:11:10.727Z,7.99
2023-01-17T20:13:38.190Z,7.70
2023-01-17T20:16:06.579Z,7.98
2023-01-17T20:18:34.671Z,7.76
2023-01-17T20:21:09.016Z,8.65
2023-01-17T20:23:38.457Z,8.35
2023-01-17T20:26:05.974Z,7.52
2023-01-17T20:28:33.970Z,8.27
2023-01-17T20:31:05.334Z,8.13
2023-01-17T20:33:33.345Z,7.71
2023-01-17T20:36:09.990Z,7.03
2023-01-17T20:38:45.022Z,7.31
2023-01-17T20:41:25.689Z,6.97
2023-01-17T20:43:54.006Z,7.46
2023-01-17T20:46:21.871Z,7.12
2023-01-17T20:48:50.403Z,6.42
2023-01-17T20:51:18.365Z,7.32
2023-01-17T20:53:46.141Z,7.40
2023-01-17T20:56:14.229Z,6.86
2023-01-17T20:58:42.063Z,6.94
2023-01-17T21:01:10.220Z,7.43
2023-01-17T21:03:38.078Z,7.01
2023-01-17T21:06:06.801Z,6.87
2023-01-17T21:08:35.092Z,6.67
2023-01-17T21:11:02.375Z,6.79
2023-01-17T21:13:31.687Z,6.44
2023-01-17T21:15:59.009Z,6.57
2023-01-17T21:18:26.842Z,6.85
2023-01-17T21:20:55.206Z,6.46
2023-01-17T21:23:29.203Z,6.31
2023-01-17T21:25:57.511Z,6.20
2023-01-17T21:28:25.674Z,5.97
2023-01-17T21:30:53.358Z,6.00
2023-01-17T21:33:21.649Z,5.72
2023-01-17T21:35:48.822Z,5.80
2023-01-17T21:38:16.353Z,5.99
2023-01-17T21:40:44.131Z,5.81
2023-01-17T21:43:11.422Z,6.60
2023-01-17T21:45:39.026Z,6.69
2023-01-17T21:48:07.196Z,6.88
2023-01-17T21:50:34.409Z,7.26
2023-01-17T21:53:02.229Z,7.43
2023-01-17T21:55:48.670Z,8.10
2023-01-17T21:58:35.196Z,8.29
2023-01-17T22:01:17.692Z,8.45
2023-01-17T22:03:47.499Z,8.91
2023-01-17T22:06:14.703Z,8.82
2023-01-17T22:08:41.953Z,9.03
2023-01-17T22:11:13.327Z,8.85
2023-01-17T22:13:40.941Z,9.18
2023-01-17T22:16:09.222Z,8.88
2023-01-17T22:18:38.303Z,9.18
2023-01-17T22:21:08.651Z,9.32
2023-01-17T22:23:36.095Z,9.67
2023-01-17T22:26:04.491Z,9.71
2023-01-17T22:28:32.184Z,9.49
2023-01-17T22:31:16.157Z,9.24
2023-01-17T22:33:45.419Z,9.43
2023-01-17T22:36:16.073Z,9.63
2023-01-17T22:38:43.674Z,9.62
2023-01-17T22:41:13.101Z,10.04
2023-01-17T22:43:41.510Z,10.19
2023-01-17T22:46:09.934Z,10.26
2023-01-17T22:48:37.397Z,9.88
2023-01-17T22:51:06.428Z,10.09
2023-01-17T22:53:33.909Z,9.82
2023-01-17T22:56:02.138Z,10.35
2023-01-17T22:58:29.624Z,10.53
2023-01-17T23:01:10.787Z,10.71
2023-01-17T23:03:38.281Z,9.73
2023-01-17T23:06:12.984Z,10.42
2023-01-17T23:08:41.083Z,10.45
2023-01-17T23:11:42.257Z,10.69
2023-01-17T23:14:16.924Z,10.79
2023-01-17T23:17:04.829Z,10.77
2023-01-17T23:19:36.205Z,10.80
2023-01-17T23:22:16.402Z,10.75
2023-01-17T23:24:44.217Z,10.88
2023-01-17T23:27:56.808Z,10.87
2023-01-17T23:30:25.513Z,10.66
2023-01-17T23:32:53.601Z,9.83
2023-01-17T23:35:21.648Z,10.21
2023-01-17T23:38:07.447Z,10.32
2023-01-17T23:40:35.508Z,10.75
2023-01-17T23:43:21.336Z,10.89
2023-01-17T23:45:49.073Z,11.03
2023-01-17T23:48:16.278Z,10.90
2023-01-17T23:50:44.532Z,11.05
2023-01-17T23:53:15.459Z,11.25
2023-01-17T23:55:43.086Z,11.30
2023-01-17T23:58:10.905Z,11.28
